sensor_id;sensor_type;location;lat;lon;timestamp;P1;durP1;ratioP1;P2;durP2;ratioP2
45887;SDS011;31595;51.418;7.572;2023-05-19T00:00:40;8.20;;;5.25;;
45887;SDS011;31595;51.418;7.572;2023-05-19T00:03:09;9.00;;;4.93;;
45887;SDS011;31595;51.418;7.572;2023-05-19T00:05:37;7.50;;;4.57;;
45887;SDS011;31595;51.418;7.572;2023-05-19T00:08:05;10.90;;;5.68;;
45887;SDS011;31595;51.418;7.572;2023-05-19T00:10:34;6.68;;;4.65;;
45887;SDS011;31595;51.418;7.572;2023-05-19T00:15:32;6.88;;;4.85;;
45887;SDS011;31595;51.418;7.572;2023-05-19T00:17:59;8.07;;;4.78;;
45887;SDS011;31595;51.418;7.572;2023-05-19T00:20:26;8.88;;;5.75;;
45887;SDS011;31595;51.418;7.572;2023-05-19T00:22:53;7.97;;;5.57;;
45887;SDS011;31595;51.418;7.572;2023-05-19T00:25:20;7.82;;;5.70;;
45887;SDS011;31595;51.418;7.572;2023-05-19T00:27:47;8.75;;;5.57;;
45887;SDS011;31595;51.418;7.572;2023-05-19T00:30:14;11.05;;;5.85;;
45887;SDS011;31595;51.418;7.572;2023-05-19T00:32:42;10.65;;;5.93;;
45887;SDS011;31595;51.418;7.572;2023-05-19T00:35:09;7.22;;;5.07;;
45887;SDS011;31595;51.418;7.572;2023-05-19T00:37:36;8.50;;;5.30;;
45887;SDS011;31595;51.418;7.572;2023-05-19T00:40:03;7.90;;;4.95;;
45887;SDS011;31595;51.418;7.572;2023-05-19T00:42:31;6.93;;;5.35;;
45887;SDS011;31595;51.418;7.572;2023-05-19T00:44:58;9.05;;;5.88;;
45887;SDS011;31595;51.418;7.572;2023-05-19T00:47:25;7.07;;;5.22;;
45887;SDS011;31595;51.418;7.572;2023-05-19T00:49:53;7.90;;;5.32;;
45887;SDS011;31595;51.418;7.572;2023-05-19T00:52:20;6.47;;;4.57;;
45887;SDS011;31595;51.418;7.572;2023-05-19T00:54:47;9.40;;;4.90;;
45887;SDS011;31595;51.418;7.572;2023-05-19T00:57:14;10.48;;;4.82;;
45887;SDS011;31595;51.418;7.572;2023-05-19T00:59:41;7.18;;;5.00;;
45887;SDS011;31595;51.418;7.572;2023-05-19T01:02:08;8.32;;;5.50;;
45887;SDS011;31595;51.418;7.572;2023-05-19T01:04:34;13.07;;;5.53;;
45887;SDS011;31595;51.418;7.572;2023-05-19T01:07:03;5.97;;;4.78;;
45887;SDS011;31595;51.418;7.572;2023-05-19T01:09:30;8.73;;;4.97;;
45887;SDS011;31595;51.418;7.572;2023-05-19T01:11:57;8.05;;;4.85;;
45887;SDS011;31595;51.418;7.572;2023-05-19T01:14:25;10.82;;;5.22;;
45887;SDS011;31595;51.418;7.572;2023-05-19T01:16:53;9.18;;;5.00;;
45887;SDS011;31595;51.418;7.572;2023-05-19T01:19:27;8.88;;;5.10;;
45887;SDS011;31595;51.418;7.572;2023-05-19T01:24:48;11.18;;;5.63;;
45887;SDS011;31595;51.418;7.572;2023-05-19T01:27:40;7.13;;;4.78;;
45887;SDS011;31595;51.418;7.572;2023-05-19T01:30:29;10.25;;;5.20;;
45887;SDS011;31595;51.418;7.572;2023-05-19T01:32:57;7.00;;;5.07;;
45887;SDS011;31595;51.418;7.572;2023-05-19T01:35:24;7.32;;;5.15;;
45887;SDS011;31595;51.418;7.572;2023-05-19T01:37:51;8.82;;;5.22;;
45887;SDS011;31595;51.418;7.572;2023-05-19T01:40:20;8.43;;;4.93;;
45887;SDS011;31595;51.418;7.572;2023-05-19T01:42:47;11.13;;;5.40;;
45887;SDS011;31595;51.418;7.572;2023-05-19T01:45:14;8.27;;;5.07;;
45887;SDS011;31595;51.418;7.572;2023-05-19T01:47:45;8.25;;;4.90;;
45887;SDS011;31595;51.418;7.572;2023-05-19T01:50:12;7.00;;;5.13;;
45887;SDS011;31595;51.418;7.572;2023-05-19T01:52:39;8.65;;;4.82;;
45887;SDS011;31595;51.418;7.572;2023-05-19T01:55:06;6.72;;;4.82;;
45887;SDS011;31595;51.418;7.572;2023-05-19T01:57:35;6.13;;;4.75;;
45887;SDS011;31595;51.418;7.572;2023-05-19T02:00:08;7.72;;;5.32;;
45887;SDS011;31595;51.418;7.572;2023-05-19T02:02:37;8.10;;;4.78;;
45887;SDS011;31595;51.418;7.572;2023-05-19T02:05:12;5.80;;;4.75;;
45887;SDS011;31595;51.418;7.572;2023-05-19T02:07:43;10.70;;;5.50;;
45887;SDS011;31595;51.418;7.572;2023-05-19T02:10:15;9.55;;;5.85;;
45887;SDS011;31595;51.418;7.572;2023-05-19T02:12:44;7.05;;;5.20;;
45887;SDS011;31595;51.418;7.572;2023-05-19T02:15:13;8.88;;;5.03;;
45887;SDS011;31595;51.418;7.572;2023-05-19T02:17:40;7.28;;;5.40;;
45887;SDS011;31595;51.418;7.572;2023-05-19T02:20:13;7.40;;;5.07;;
45887;SDS011;31595;51.418;7.572;2023-05-19T02:22:40;9.25;;;4.78;;
45887;SDS011;31595;51.418;7.572;2023-05-19T02:25:07;7.80;;;5.25;;
45887;SDS011;31595;51.418;7.572;2023-05-19T02:27:35;6.28;;;4.88;;
45887;SDS011;31595;51.418;7.572;2023-05-19T02:30:02;10.50;;;5.50;;
45887;SDS011;31595;51.418;7.572;2023-05-19T02:32:28;7.22;;;5.32;;
45887;SDS011;31595;51.418;7.572;2023-05-19T02:34:55;7.97;;;5.57;;
45887;SDS011;31595;51.418;7.572;2023-05-19T02:37:24;9.15;;;5.22;;
45887;SDS011;31595;51.418;7.572;2023-05-19T02:39:52;9.55;;;5.65;;
45887;SDS011;31595;51.418;7.572;2023-05-19T02:42:19;6.00;;;4.45;;
45887;SDS011;31595;51.418;7.572;2023-05-19T02:44:46;6.13;;;5.20;;
45887;SDS011;31595;51.418;7.572;2023-05-19T02:47:13;6.75;;;5.32;;
45887;SDS011;31595;51.418;7.572;2023-05-19T02:49:40;7.50;;;5.22;;
45887;SDS011;31595;51.418;7.572;2023-05-19T02:52:08;8.07;;;5.38;;
45887;SDS011;31595;51.418;7.572;2023-05-19T02:54:37;10.63;;;6.13;;
45887;SDS011;31595;51.418;7.572;2023-05-19T02:57:04;7.78;;;5.38;;
45887;SDS011;31595;51.418;7.572;2023-05-19T02:59:32;8.20;;;4.95;;
45887;SDS011;31595;51.418;7.572;2023-05-19T03:01:59;6.80;;;5.07;;
45887;SDS011;31595;51.418;7.572;2023-05-19T03:04:26;6.45;;;4.82;;
45887;SDS011;31595;51.418;7.572;2023-05-19T03:06:53;8.77;;;5.47;;
45887;SDS011;31595;51.418;7.572;2023-05-19T03:09:20;7.75;;;5.40;;
45887;SDS011;31595;51.418;7.572;2023-05-19T03:11:48;7.05;;;4.70;;
45887;SDS011;31595;51.418;7.572;2023-05-19T03:14:15;8.50;;;5.43;;
45887;SDS011;31595;51.418;7.572;2023-05-19T03:16:42;8.98;;;5.53;;
45887;SDS011;31595;51.418;7.572;2023-05-19T03:19:09;7.45;;;5.13;;
45887;SDS011;31595;51.418;7.572;2023-05-19T03:21:36;8.20;;;6.03;;
45887;SDS011;31595;51.418;7.572;2023-05-19T03:24:03;9.23;;;5.43;;
45887;SDS011;31595;51.418;7.572;2023-05-19T03:26:31;7.55;;;5.07;;
45887;SDS011;31595;51.418;7.572;2023-05-19T03:28:59;9.35;;;5.97;;
45887;SDS011;31595;51.418;7.572;2023-05-19T03:31:26;6.95;;;5.22;;
45887;SDS011;31595;51.418;7.572;2023-05-19T03:33:55;9.43;;;5.68;;
45887;SDS011;31595;51.418;7.572;2023-05-19T03:36:22;8.77;;;5.45;;
45887;SDS011;31595;51.418;7.572;2023-05-19T03:38:50;7.57;;;5.50;;
45887;SDS011;31595;51.418;7.572;2023-05-19T03:41:17;8.43;;;5.43;;
45887;SDS011;31595;51.418;7.572;2023-05-19T03:43:44;12.95;;;6.82;;
45887;SDS011;31595;51.418;7.572;2023-05-19T03:46:12;7.32;;;5.45;;
45887;SDS011;31595;51.418;7.572;2023-05-19T03:48:39;6.63;;;5.30;;
45887;SDS011;31595;51.418;7.572;2023-05-19T03:51:06;7.82;;;5.90;;
45887;SDS011;31595;51.418;7.572;2023-05-19T03:53:33;6.85;;;4.90;;
45887;SDS011;31595;51.418;7.572;2023-05-19T03:56:00;8.77;;;5.18;;
45887;SDS011;31595;51.418;7.572;2023-05-19T03:58:27;7.25;;;4.70;;
45887;SDS011;31595;51.418;7.572;2023-05-19T04:00:54;8.57;;;4.65;;
45887;SDS011;31595;51.418;7.572;2023-05-19T04:03:23;7.15;;;4.95;;
45887;SDS011;31595;51.418;7.572;2023-05-19T04:05:50;6.90;;;5.20;;
45887;SDS011;31595;51.418;7.572;2023-05-19T04:08:17;7.18;;;4.95;;
45887;SDS011;31595;51.418;7.572;2023-05-19T04:10:44;7.82;;;5.18;;
45887;SDS011;31595;51.418;7.572;2023-05-19T04:13:10;7.43;;;4.80;;
45887;SDS011;31595;51.418;7.572;2023-05-19T04:15:37;9.27;;;5.18;;
45887;SDS011;31595;51.418;7.572;2023-05-19T04:18:05;9.23;;;5.45;;
45887;SDS011;31595;51.418;7.572;2023-05-19T04:20:33;5.50;;;4.28;;
45887;SDS011;31595;51.418;7.572;2023-05-19T04:23:00;9.10;;;5.10;;
45887;SDS011;31595;51.418;7.572;2023-05-19T04:25:27;6.68;;;5.40;;
45887;SDS011;31595;51.418;7.572;2023-05-19T04:27:53;8.95;;;5.72;;
45887;SDS011;31595;51.418;7.572;2023-05-19T04:30:22;8.93;;;5.97;;
45887;SDS011;31595;51.418;7.572;2023-05-19T04:32:49;8.73;;;5.72;;
45887;SDS011;31595;51.418;7.572;2023-05-19T04:35:15;9.38;;;5.47;;
45887;SDS011;31595;51.418;7.572;2023-05-19T04:37:44;7.90;;;5.80;;
45887;SDS011;31595;51.418;7.572;2023-05-19T04:40:11;10.32;;;6.15;;
45887;SDS011;31595;51.418;7.572;2023-05-19T04:42:38;8.25;;;6.13;;
45887;SDS011;31595;51.418;7.572;2023-05-19T04:45:07;9.80;;;6.20;;
45887;SDS011;31595;51.418;7.572;2023-05-19T04:47:34;9.88;;;6.25;;
45887;SDS011;31595;51.418;7.572;2023-05-19T04:50:02;8.30;;;5.80;;
45887;SDS011;31595;51.418;7.572;2023-05-19T04:52:29;8.10;;;5.45;;
45887;SDS011;31595;51.418;7.572;2023-05-19T04:54:57;7.63;;;5.60;;
45887;SDS011;31595;51.418;7.572;2023-05-19T04:57:24;7.70;;;5.63;;
45887;SDS011;31595;51.418;7.572;2023-05-19T04:59:51;9.50;;;5.20;;
45887;SDS011;31595;51.418;7.572;2023-05-19T05:02:24;8.07;;;4.60;;
45887;SDS011;31595;51.418;7.572;2023-05-19T05:04:51;10.32;;;5.70;;
45887;SDS011;31595;51.418;7.572;2023-05-19T05:07:19;8.52;;;4.65;;
45887;SDS011;31595;51.418;7.572;2023-05-19T05:09:47;8.68;;;5.65;;
45887;SDS011;31595;51.418;7.572;2023-05-19T05:12:16;8.68;;;5.45;;
45887;SDS011;31595;51.418;7.572;2023-05-19T05:14:43;9.60;;;5.70;;
45887;SDS011;31595;51.418;7.572;2023-05-19T05:17:10;6.95;;;5.72;;
45887;SDS011;31595;51.418;7.572;2023-05-19T05:19:37;7.57;;;6.07;;
45887;SDS011;31595;51.418;7.572;2023-05-19T05:22:04;9.55;;;6.05;;
45887;SDS011;31595;51.418;7.572;2023-05-19T05:24:32;10.13;;;5.65;;
45887;SDS011;31595;51.418;7.572;2023-05-19T05:26:59;7.45;;;5.03;;
45887;SDS011;31595;51.418;7.572;2023-05-19T05:29:27;10.27;;;5.97;;
45887;SDS011;31595;51.418;7.572;2023-05-19T05:31:53;6.85;;;5.80;;
45887;SDS011;31595;51.418;7.572;2023-05-19T05:34:20;8.02;;;5.40;;
45887;SDS011;31595;51.418;7.572;2023-05-19T05:36:47;7.78;;;5.63;;
45887;SDS011;31595;51.418;7.572;2023-05-19T05:39:14;8.30;;;5.18;;
45887;SDS011;31595;51.418;7.572;2023-05-19T05:41:41;8.82;;;5.22;;
45887;SDS011;31595;51.418;7.572;2023-05-19T05:44:07;7.65;;;5.47;;
45887;SDS011;31595;51.418;7.572;2023-05-19T05:46:36;9.27;;;6.25;;
45887;SDS011;31595;51.418;7.572;2023-05-19T05:49:03;8.50;;;5.82;;
45887;SDS011;31595;51.418;7.572;2023-05-19T05:51:30;9.45;;;6.18;;
45887;SDS011;31595;51.418;7.572;2023-05-19T05:53:57;8.75;;;6.15;;
45887;SDS011;31595;51.418;7.572;2023-05-19T05:56:25;8.20;;;5.65;;
45887;SDS011;31595;51.418;7.572;2023-05-19T05:58:53;7.97;;;6.28;;
45887;SDS011;31595;51.418;7.572;2023-05-19T06:01:19;8.88;;;6.55;;
45887;SDS011;31595;51.418;7.572;2023-05-19T06:03:49;8.18;;;6.88;;
45887;SDS011;31595;51.418;7.572;2023-05-19T06:06:16;8.60;;;5.97;;
45887;SDS011;31595;51.418;7.572;2023-05-19T06:08:43;8.63;;;5.80;;
45887;SDS011;31595;51.418;7.572;2023-05-19T06:11:10;10.18;;;5.82;;
45887;SDS011;31595;51.418;7.572;2023-05-19T06:13:37;7.28;;;5.05;;
45887;SDS011;31595;51.418;7.572;2023-05-19T06:16:05;7.68;;;5.75;;
45887;SDS011;31595;51.418;7.572;2023-05-19T06:18:32;8.63;;;6.18;;
45887;SDS011;31595;51.418;7.572;2023-05-19T06:21:01;11.43;;;6.10;;
45887;SDS011;31595;51.418;7.572;2023-05-19T06:23:29;6.60;;;5.20;;
45887;SDS011;31595;51.418;7.572;2023-05-19T06:25:55;5.43;;;4.78;;
45887;SDS011;31595;51.418;7.572;2023-05-19T06:28:22;9.00;;;5.30;;
45887;SDS011;31595;51.418;7.572;2023-05-19T06:30:49;9.07;;;5.35;;
45887;SDS011;31595;51.418;7.572;2023-05-19T06:33:16;8.10;;;4.95;;
45887;SDS011;31595;51.418;7.572;2023-05-19T06:35:43;6.60;;;4.28;;
45887;SDS011;31595;51.418;7.572;2023-05-19T06:38:11;7.68;;;4.03;;
45887;SDS011;31595;51.418;7.572;2023-05-19T06:40:38;5.28;;;3.80;;
45887;SDS011;31595;51.418;7.572;2023-05-19T06:43:05;7.25;;;3.47;;
45887;SDS011;31595;51.418;7.572;2023-05-19T06:45:32;6.88;;;3.50;;
45887;SDS011;31595;51.418;7.572;2023-05-19T06:47:58;7.57;;;3.33;;
45887;SDS011;31595;51.418;7.572;2023-05-19T06:50:25;6.90;;;3.72;;
45887;SDS011;31595;51.418;7.572;2023-05-19T06:52:52;6.95;;;3.28;;
45887;SDS011;31595;51.418;7.572;2023-05-19T06:55:20;8.15;;;4.05;;
45887;SDS011;31595;51.418;7.572;2023-05-19T06:57:47;7.47;;;3.28;;
45887;SDS011;31595;51.418;7.572;2023-05-19T07:00:14;5.93;;;2.90;;
45887;SDS011;31595;51.418;7.572;2023-05-19T07:02:43;6.25;;;3.03;;
45887;SDS011;31595;51.418;7.572;2023-05-19T07:05:10;7.68;;;3.15;;
45887;SDS011;31595;51.418;7.572;2023-05-19T07:07:36;5.78;;;2.45;;
45887;SDS011;31595;51.418;7.572;2023-05-19T07:10:03;5.65;;;2.53;;
45887;SDS011;31595;51.418;7.572;2023-05-19T07:12:32;6.05;;;2.33;;
45887;SDS011;31595;51.418;7.572;2023-05-19T07:14:59;6.95;;;2.58;;
45887;SDS011;31595;51.418;7.572;2023-05-19T07:17:25;5.28;;;2.47;;
45887;SDS011;31595;51.418;7.572;2023-05-19T07:19:52;5.28;;;2.20;;
45887;SDS011;31595;51.418;7.572;2023-05-19T07:22:19;4.10;;;2.00;;
45887;SDS011;31595;51.418;7.572;2023-05-19T07:24:46;4.30;;;2.00;;
45887;SDS011;31595;51.418;7.572;2023-05-19T07:27:13;6.88;;;2.30;;
45887;SDS011;31595;51.418;7.572;2023-05-19T07:29:41;5.65;;;2.30;;
45887;SDS011;31595;51.418;7.572;2023-05-19T07:32:08;5.70;;;2.30;;
45887;SDS011;31595;51.418;7.572;2023-05-19T07:34:35;7.97;;;2.38;;
45887;SDS011;31595;51.418;7.572;2023-05-19T07:37:02;4.97;;;2.70;;
45887;SDS011;31595;51.418;7.572;2023-05-19T07:39:29;5.45;;;2.63;;
45887;SDS011;31595;51.418;7.572;2023-05-19T07:41:56;5.95;;;2.72;;
45887;SDS011;31595;51.418;7.572;2023-05-19T07:44:23;4.00;;;2.05;;
45887;SDS011;31595;51.418;7.572;2023-05-19T07:46:52;6.05;;;2.20;;
45887;SDS011;31595;51.418;7.572;2023-05-19T07:49:19;4.82;;;1.90;;
45887;SDS011;31595;51.418;7.572;2023-05-19T07:51:46;4.40;;;1.90;;
45887;SDS011;31595;51.418;7.572;2023-05-19T07:54:13;5.90;;;2.03;;
45887;SDS011;31595;51.418;7.572;2023-05-19T07:56:40;5.18;;;1.98;;
45887;SDS011;31595;51.418;7.572;2023-05-19T07:59:06;4.65;;;2.00;;
45887;SDS011;31595;51.418;7.572;2023-05-19T08:01:33;5.22;;;2.05;;
45887;SDS011;31595;51.418;7.572;2023-05-19T08:04:02;4.72;;;2.13;;
45887;SDS011;31595;51.418;7.572;2023-05-19T08:06:29;5.77;;;2.20;;
45887;SDS011;31595;51.418;7.572;2023-05-19T08:08:56;5.53;;;2.15;;
45887;SDS011;31595;51.418;7.572;2023-05-19T08:11:23;5.60;;;1.80;;
45887;SDS011;31595;51.418;7.572;2023-05-19T08:13:50;5.63;;;2.08;;
45887;SDS011;31595;51.418;7.572;2023-05-19T08:16:17;5.55;;;2.10;;
45887;SDS011;31595;51.418;7.572;2023-05-19T08:18:43;5.05;;;1.92;;
45887;SDS011;31595;51.418;7.572;2023-05-19T08:21:12;4.07;;;1.70;;
45887;SDS011;31595;51.418;7.572;2023-05-19T08:23:38;3.80;;;1.65;;
45887;SDS011;31595;51.418;7.572;2023-05-19T08:26:05;4.70;;;1.83;;
45887;SDS011;31595;51.418;7.572;2023-05-19T08:28:32;5.18;;;1.95;;
45887;SDS011;31595;51.418;7.572;2023-05-19T08:30:59;6.82;;;2.08;;
45887;SDS011;31595;51.418;7.572;2023-05-19T08:33:26;6.18;;;1.80;;
45887;SDS011;31595;51.418;7.572;2023-05-19T08:35:54;4.80;;;1.67;;
45887;SDS011;31595;51.418;7.572;2023-05-19T08:38:23;4.72;;;1.80;;
45887;SDS011;31595;51.418;7.572;2023-05-19T08:40:50;4.78;;;1.80;;
45887;SDS011;31595;51.418;7.572;2023-05-19T08:43:17;5.30;;;2.47;;
45887;SDS011;31595;51.418;7.572;2023-05-19T08:45:44;4.82;;;1.60;;
45887;SDS011;31595;51.418;7.572;2023-05-19T08:48:12;3.97;;;1.83;;
45887;SDS011;31595;51.418;7.572;2023-05-19T08:50:40;5.15;;;1.98;;
45887;SDS011;31595;51.418;7.572;2023-05-19T08:53:12;4.22;;;2.17;;
45887;SDS011;31595;51.418;7.572;2023-05-19T08:58:08;6.72;;;2.75;;
45887;SDS011;31595;51.418;7.572;2023-05-19T09:00:35;4.20;;;2.00;;
45887;SDS011;31595;51.418;7.572;2023-05-19T09:03:02;4.03;;;1.60;;
45887;SDS011;31595;51.418;7.572;2023-05-19T09:05:29;3.88;;;1.67;;
45887;SDS011;31595;51.418;7.572;2023-05-19T09:07:57;4.53;;;2.10;;
45887;SDS011;31595;51.418;7.572;2023-05-19T09:10:27;4.43;;;2.03;;
45887;SDS011;31595;51.418;7.572;2023-05-19T09:12:54;4.38;;;1.90;;
45887;SDS011;31595;51.418;7.572;2023-05-19T09:15:24;5.72;;;2.05;;
45887;SDS011;31595;51.418;7.572;2023-05-19T09:17:56;4.93;;;2.03;;
45887;SDS011;31595;51.418;7.572;2023-05-19T09:20:29;4.63;;;1.73;;
45887;SDS011;31595;51.418;7.572;2023-05-19T09:22:56;5.15;;;2.28;;
45887;SDS011;31595;51.418;7.572;2023-05-19T09:25:25;4.63;;;1.90;;
45887;SDS011;31595;51.418;7.572;2023-05-19T09:27:52;5.32;;;1.90;;
45887;SDS011;31595;51.418;7.572;2023-05-19T09:30:19;3.67;;;1.70;;
45887;SDS011;31595;51.418;7.572;2023-05-19T09:32:48;5.45;;;1.80;;
45887;SDS011;31595;51.418;7.572;2023-05-19T09:37:44;4.57;;;2.00;;
45887;SDS011;31595;51.418;7.572;2023-05-19T09:40:12;5.20;;;1.90;;
45887;SDS011;31595;51.418;7.572;2023-05-19T09:45:06;3.72;;;2.20;;
45887;SDS011;31595;51.418;7.572;2023-05-19T09:47:33;4.75;;;1.77;;
45887;SDS011;31595;51.418;7.572;2023-05-19T09:50:05;3.83;;;1.60;;
45887;SDS011;31595;51.418;7.572;2023-05-19T09:52:36;4.38;;;1.60;;
45887;SDS011;31595;51.418;7.572;2023-05-19T09:55:03;4.50;;;1.80;;
45887;SDS011;31595;51.418;7.572;2023-05-19T09:57:34;3.92;;;1.88;;
45887;SDS011;31595;51.418;7.572;2023-05-19T10:00:03;3.47;;;1.67;;
45887;SDS011;31595;51.418;7.572;2023-05-19T10:02:35;4.28;;;1.55;;
45887;SDS011;31595;51.418;7.572;2023-05-19T10:05:02;3.90;;;1.57;;
45887;SDS011;31595;51.418;7.572;2023-05-19T10:07:31;5.63;;;1.90;;
45887;SDS011;31595;51.418;7.572;2023-05-19T10:09:59;7.43;;;2.05;;
45887;SDS011;31595;51.418;7.572;2023-05-19T10:12:26;5.43;;;2.38;;
45887;SDS011;31595;51.418;7.572;2023-05-19T10:14:53;3.00;;;1.70;;
45887;SDS011;31595;51.418;7.572;2023-05-19T10:17:21;3.60;;;1.67;;
45887;SDS011;31595;51.418;7.572;2023-05-19T10:19:48;3.22;;;1.80;;
45887;SDS011;31595;51.418;7.572;2023-05-19T10:22:16;2.63;;;1.40;;
45887;SDS011;31595;51.418;7.572;2023-05-19T10:24:44;7.38;;;1.80;;
45887;SDS011;31595;51.418;7.572;2023-05-19T10:27:11;3.80;;;2.00;;
45887;SDS011;31595;51.418;7.572;2023-05-19T10:29:40;3.83;;;1.92;;
45887;SDS011;31595;51.418;7.572;2023-05-19T10:32:09;5.75;;;1.90;;
45887;SDS011;31595;51.418;7.572;2023-05-19T10:34:46;5.53;;;1.98;;
45887;SDS011;31595;51.418;7.572;2023-05-19T10:37:16;3.20;;;1.80;;
45887;SDS011;31595;51.418;7.572;2023-05-19T10:39:45;5.30;;;2.22;;
45887;SDS011;31595;51.418;7.572;2023-05-19T10:42:14;3.30;;;1.85;;
45887;SDS011;31595;51.418;7.572;2023-05-19T10:44:45;3.33;;;1.58;;
45887;SDS011;31595;51.418;7.572;2023-05-19T10:47:21;5.30;;;2.05;;
45887;SDS011;31595;51.418;7.572;2023-05-19T10:49:48;7.35;;;2.20;;
45887;SDS011;31595;51.418;7.572;2023-05-19T10:52:20;4.28;;;1.90;;
45887;SDS011;31595;51.418;7.572;2023-05-19T10:54:49;4.35;;;1.92;;
45887;SDS011;31595;51.418;7.572;2023-05-19T10:57:15;3.13;;;1.80;;
45887;SDS011;31595;51.418;7.572;2023-05-19T10:59:43;4.40;;;2.08;;
45887;SDS011;31595;51.418;7.572;2023-05-19T11:02:10;5.30;;;2.00;;
45887;SDS011;31595;51.418;7.572;2023-05-19T11:04:58;3.53;;;1.95;;
45887;SDS011;31595;51.418;7.572;2023-05-19T11:07:32;4.00;;;1.80;;
45887;SDS011;31595;51.418;7.572;2023-05-19T11:10:03;3.97;;;1.83;;
45887;SDS011;31595;51.418;7.572;2023-05-19T11:12:30;3.55;;;2.20;;
45887;SDS011;31595;51.418;7.572;2023-05-19T11:15:05;3.10;;;1.60;;
45887;SDS011;31595;51.418;7.572;2023-05-19T11:19:59;6.30;;;2.10;;
45887;SDS011;31595;51.418;7.572;2023-05-19T11:22:26;4.50;;;2.00;;
45887;SDS011;31595;51.418;7.572;2023-05-19T11:24:53;4.22;;;1.92;;
45887;SDS011;31595;51.418;7.572;2023-05-19T11:27:23;3.80;;;1.83;;
45887;SDS011;31595;51.418;7.572;2023-05-19T11:29:50;4.53;;;1.65;;
45887;SDS011;31595;51.418;7.572;2023-05-19T11:32:18;3.57;;;1.60;;
45887;SDS011;31595;51.418;7.572;2023-05-19T11:34:45;3.53;;;1.63;;
45887;SDS011;31595;51.418;7.572;2023-05-19T11:39:40;3.60;;;1.67;;
45887;SDS011;31595;51.418;7.572;2023-05-19T11:42:07;3.63;;;1.85;;
45887;SDS011;31595;51.418;7.572;2023-05-19T11:44:35;4.32;;;1.95;;
45887;SDS011;31595;51.418;7.572;2023-05-19T11:47:02;3.17;;;1.58;;
45887;SDS011;31595;51.418;7.572;2023-05-19T11:49:29;2.92;;;1.42;;
45887;SDS011;31595;51.418;7.572;2023-05-19T11:51:58;3.30;;;1.80;;
45887;SDS011;31595;51.418;7.572;2023-05-19T11:54:28;3.65;;;1.52;;
45887;SDS011;31595;51.418;7.572;2023-05-19T11:56:55;3.42;;;1.65;;
45887;SDS011;31595;51.418;7.572;2023-05-19T11:59:28;4.78;;;1.60;;
45887;SDS011;31595;51.418;7.572;2023-05-19T12:01:57;2.80;;;1.38;;
45887;SDS011;31595;51.418;7.572;2023-05-19T12:04:24;3.00;;;1.48;;
45887;SDS011;31595;51.418;7.572;2023-05-19T12:06:51;3.28;;;1.65;;
45887;SDS011;31595;51.418;7.572;2023-05-19T12:09:18;4.30;;;1.43;;
45887;SDS011;31595;51.418;7.572;2023-05-19T12:11:45;3.80;;;1.58;;
45887;SDS011;31595;51.418;7.572;2023-05-19T12:14:11;4.63;;;1.47;;
45887;SDS011;31595;51.418;7.572;2023-05-19T12:16:38;3.33;;;1.53;;
45887;SDS011;31595;51.418;7.572;2023-05-19T12:19:07;2.47;;;1.67;;
45887;SDS011;31595;51.418;7.572;2023-05-19T12:21:35;4.55;;;1.70;;
45887;SDS011;31595;51.418;7.572;2023-05-19T12:24:02;4.22;;;1.35;;
45887;SDS011;31595;51.418;7.572;2023-05-19T12:26:31;3.58;;;1.60;;
45887;SDS011;31595;51.418;7.572;2023-05-19T12:28:58;3.33;;;1.60;;
45887;SDS011;31595;51.418;7.572;2023-05-19T12:31:25;4.90;;;1.70;;
45887;SDS011;31595;51.418;7.572;2023-05-19T12:33:52;3.83;;;1.60;;
45887;SDS011;31595;51.418;7.572;2023-05-19T12:36:23;4.03;;;1.55;;
45887;SDS011;31595;51.418;7.572;2023-05-19T12:38:52;4.13;;;1.42;;
45887;SDS011;31595;51.418;7.572;2023-05-19T12:43:45;3.83;;;1.52;;
45887;SDS011;31595;51.418;7.572;2023-05-19T12:46:17;3.17;;;1.60;;
45887;SDS011;31595;51.418;7.572;2023-05-19T12:48:45;3.92;;;1.60;;
45887;SDS011;31595;51.418;7.572;2023-05-19T12:51:15;3.80;;;1.60;;
45887;SDS011;31595;51.418;7.572;2023-05-19T12:53:44;3.83;;;1.50;;
45887;SDS011;31595;51.418;7.572;2023-05-19T12:56:12;3.20;;;1.80;;
45887;SDS011;31595;51.418;7.572;2023-05-19T12:58:39;3.53;;;1.60;;
45887;SDS011;31595;51.418;7.572;2023-05-19T13:01:06;3.63;;;1.55;;
45887;SDS011;31595;51.418;7.572;2023-05-19T13:03:38;3.07;;;1.40;;
45887;SDS011;31595;51.418;7.572;2023-05-19T13:06:05;2.80;;;1.30;;
45887;SDS011;31595;51.418;7.572;2023-05-19T13:08:32;3.47;;;1.73;;
45887;SDS011;31595;51.418;7.572;2023-05-19T13:11:00;2.00;;;1.40;;
45887;SDS011;31595;51.418;7.572;2023-05-19T13:15:53;2.97;;;1.40;;
45887;SDS011;31595;51.418;7.572;2023-05-19T13:18:20;3.25;;;1.48;;
45887;SDS011;31595;51.418;7.572;2023-05-19T13:20:47;5.10;;;1.75;;
45887;SDS011;31595;51.418;7.572;2023-05-19T13:23:15;2.85;;;1.38;;
45887;SDS011;31595;51.418;7.572;2023-05-19T13:25:46;2.10;;;1.30;;
45887;SDS011;31595;51.418;7.572;2023-05-19T13:28:14;3.13;;;1.63;;
45887;SDS011;31595;51.418;7.572;2023-05-19T13:30:42;3.90;;;1.60;;
45887;SDS011;31595;51.418;7.572;2023-05-19T13:33:09;2.95;;;1.30;;
45887;SDS011;31595;51.418;7.572;2023-05-19T13:35:35;5.03;;;1.73;;
45887;SDS011;31595;51.418;7.572;2023-05-19T13:38:07;3.53;;;1.48;;
45887;SDS011;31595;51.418;7.572;2023-05-19T13:40:34;3.70;;;1.60;;
45887;SDS011;31595;51.418;7.572;2023-05-19T13:43:04;3.85;;;1.83;;
45887;SDS011;31595;51.418;7.572;2023-05-19T13:45:33;4.82;;;1.73;;
45887;SDS011;31595;51.418;7.572;2023-05-19T13:48:00;3.38;;;1.58;;
45887;SDS011;31595;51.418;7.572;2023-05-19T13:50:27;3.58;;;1.42;;
45887;SDS011;31595;51.418;7.572;2023-05-19T13:52:54;2.78;;;1.80;;
45887;SDS011;31595;51.418;7.572;2023-05-19T13:55:21;3.60;;;1.50;;
45887;SDS011;31595;51.418;7.572;2023-05-19T13:57:48;3.95;;;1.40;;
45887;SDS011;31595;51.418;7.572;2023-05-19T14:00:15;3.60;;;1.40;;
45887;SDS011;31595;51.418;7.572;2023-05-19T14:02:44;4.10;;;1.50;;
45887;SDS011;31595;51.418;7.572;2023-05-19T14:05:10;5.00;;;1.90;;
45887;SDS011;31595;51.418;7.572;2023-05-19T14:07:39;4.03;;;1.75;;
45887;SDS011;31595;51.418;7.572;2023-05-19T14:10:07;2.95;;;1.48;;
45887;SDS011;31595;51.418;7.572;2023-05-19T14:12:34;4.10;;;1.55;;
45887;SDS011;31595;51.418;7.572;2023-05-19T14:15:03;4.25;;;1.73;;
45887;SDS011;31595;51.418;7.572;2023-05-19T14:17:30;3.85;;;1.58;;
45887;SDS011;31595;51.418;7.572;2023-05-19T14:19:59;2.45;;;1.35;;
45887;SDS011;31595;51.418;7.572;2023-05-19T14:22:27;3.08;;;1.70;;
45887;SDS011;31595;51.418;7.572;2023-05-19T14:24:58;3.78;;;1.88;;
45887;SDS011;31595;51.418;7.572;2023-05-19T14:27:25;3.83;;;1.40;;
45887;SDS011;31595;51.418;7.572;2023-05-19T14:29:51;3.13;;;1.67;;
45887;SDS011;31595;51.418;7.572;2023-05-19T14:32:18;3.45;;;1.40;;
45887;SDS011;31595;51.418;7.572;2023-05-19T14:34:45;4.88;;;1.60;;
45887;SDS011;31595;51.418;7.572;2023-05-19T14:37:13;4.10;;;1.73;;
45887;SDS011;31595;51.418;7.572;2023-05-19T14:39:40;3.05;;;1.58;;
45887;SDS011;31595;51.418;7.572;2023-05-19T14:42:07;4.00;;;1.67;;
45887;SDS011;31595;51.418;7.572;2023-05-19T14:44:34;2.60;;;1.40;;
45887;SDS011;31595;51.418;7.572;2023-05-19T14:47:03;4.22;;;2.10;;
45887;SDS011;31595;51.418;7.572;2023-05-19T14:49:31;3.73;;;1.33;;
45887;SDS011;31595;51.418;7.572;2023-05-19T14:51:58;3.47;;;1.63;;
45887;SDS011;31595;51.418;7.572;2023-05-19T14:54:26;2.50;;;1.38;;
45887;SDS011;31595;51.418;7.572;2023-05-19T14:56:56;2.80;;;1.70;;
45887;SDS011;31595;51.418;7.572;2023-05-19T14:59:23;3.80;;;1.40;;
45887;SDS011;31595;51.418;7.572;2023-05-19T15:01:49;3.25;;;1.40;;
45887;SDS011;31595;51.418;7.572;2023-05-19T15:04:19;3.45;;;1.60;;
45887;SDS011;31595;51.418;7.572;2023-05-19T15:06:46;3.33;;;1.40;;
45887;SDS011;31595;51.418;7.572;2023-05-19T15:09:12;2.53;;;1.60;;
45887;SDS011;31595;51.418;7.572;2023-05-19T15:11:41;5.35;;;1.60;;
45887;SDS011;31595;51.418;7.572;2023-05-19T15:14:07;4.10;;;1.67;;